createdAt,value
2022-10-14T00:02:00.969Z,1.60
2022-10-14T00:07:04.020Z,1.52
2022-10-14T00:12:08.528Z,1.67
2022-10-14T00:17:11.553Z,1.50
2022-10-14T00:22:14.519Z,1.60
2022-10-14T00:27:19.094Z,1.63
2022-10-14T00:32:22.282Z,1.80
2022-10-14T00:37:25.248Z,1.60
2022-10-14T00:42:29.600Z,1.73
2022-10-14T00:47:33.526Z,1.63
2022-10-14T00:52:36.671Z,1.60
2022-10-14T00:57:41.212Z,1.35
2022-10-14T01:02:44.662Z,1.50
2022-10-14T01:08:04.004Z,1.48
2022-10-14T01:13:19.010Z,1.95
2022-10-14T01:18:34.659Z,1.80
2022-10-14T01:24:24.427Z,1.60
2022-10-14T01:29:46.499Z,1.58
2022-10-14T01:34:54.775Z,1.75
2022-10-14T01:40:03.789Z,1.92
2022-10-14T01:45:13.126Z,1.50
2022-10-14T01:50:18.029Z,1.50
2022-10-14T01:55:25.346Z,1.35
2022-10-14T02:00:29.731Z,1.38
2022-10-14T02:05:38.550Z,1.50
2022-10-14T02:11:02.145Z,1.42
2022-10-14T02:16:20.108Z,1.38
2022-10-14T02:21:29.107Z,1.38
2022-10-14T02:26:34.064Z,1.50
2022-10-14T02:31:40.845Z,1.48
2022-10-14T02:36:45.857Z,1.30
2022-10-14T02:41:49.086Z,1.33
2022-10-14T02:46:55.531Z,1.50
2022-10-14T02:51:58.582Z,1.50
2022-10-14T02:57:01.528Z,1.70
2022-10-14T03:02:06.147Z,1.40
2022-10-14T03:07:09.197Z,1.52
2022-10-14T03:12:12.281Z,1.48
2022-10-14T03:17:16.643Z,1.45
2022-10-14T03:22:19.981Z,1.60
2022-10-14T03:27:23.295Z,1.42
2022-10-14T03:32:27.715Z,2.00
2022-10-14T03:37:30.708Z,1.30
2022-10-14T03:42:33.672Z,1.60
2022-10-14T03:47:38.263Z,1.60
2022-10-14T03:52:46.431Z,1.50
2022-10-14T03:57:49.849Z,1.30
2022-10-14T04:02:54.152Z,1.60
2022-10-14T04:07:57.165Z,1.40
2022-10-14T04:13:00.158Z,1.20
2022-10-14T04:18:04.743Z,1.70
2022-10-14T04:23:07.775Z,1.30
2022-10-14T04:28:11.232Z,1.30
2022-10-14T04:33:15.584Z,1.40
2022-10-14T04:38:19.601Z,1.27
2022-10-14T04:43:22.928Z,1.17
2022-10-14T04:48:27.327Z,1.10
2022-10-14T04:53:30.307Z,1.30
2022-10-14T04:58:33.318Z,1.35
2022-10-14T05:03:37.634Z,1.42
2022-10-14T05:08:40.674Z,1.30
2022-10-14T05:13:43.714Z,1.33
2022-10-14T05:18:48.051Z,1.02
2022-10-14T05:23:51.057Z,1.45
2022-10-14T05:28:54.236Z,1.23
2022-10-14T05:33:58.606Z,1.00
2022-10-14T05:39:02.660Z,1.48
2022-10-14T05:44:06.274Z,1.40
2022-10-14T05:49:11.967Z,1.23
2022-10-14T05:54:15.064Z,1.10
2022-10-14T05:59:18.095Z,1.13
2022-10-14T06:04:22.846Z,1.00
2022-10-14T06:09:25.798Z,1.05
2022-10-14T06:14:28.898Z,1.20
2022-10-14T06:19:33.951Z,1.40
2022-10-14T06:24:37.281Z,1.10
2022-10-14T06:29:40.275Z,1.35
2022-10-14T06:34:44.603Z,1.10
2022-10-14T06:39:47.560Z,1.27
2022-10-14T06:44:50.552Z,1.10
2022-10-14T06:49:54.884Z,1.27
2022-10-14T06:54:58.978Z,1.05
2022-10-14T07:00:01.947Z,1.00
2022-10-14T07:05:07.002Z,1.02
2022-10-14T07:10:10.666Z,1.00
2022-10-14T07:15:13.635Z,1.10
2022-10-14T07:20:17.968Z,1.00
2022-10-14T07:25:20.934Z,1.00
2022-10-14T07:30:24.113Z,1.20
2022-10-14T07:35:29.129Z,1.00
2022-10-14T07:40:32.074Z,1.20
2022-10-14T07:45:36.347Z,1.00
2022-10-14T07:50:40.651Z,1.20
2022-10-14T07:55:51.999Z,1.13
2022-10-14T08:00:56.078Z,1.00
2022-10-14T08:06:05.374Z,1.10
2022-10-14T08:11:11.075Z,1.08
2022-10-14T08:16:16.587Z,1.10
2022-10-14T08:21:22.040Z,1.25
2022-10-14T08:26:29.118Z,1.10
2022-10-14T08:31:32.898Z,1.00
2022-10-14T08:36:37.220Z,1.15
2022-10-14T08:42:05.765Z,1.20
2022-10-14T08:47:14.169Z,1.08
2022-10-14T08:52:22.308Z,0.98
2022-10-14T08:57:29.818Z,1.25
2022-10-14T09:02:43.040Z,1.02
2022-10-14T09:07:48.619Z,1.10
2022-10-14T09:12:53.278Z,1.20
2022-10-14T09:18:05.585Z,1.20
2022-10-14T09:23:17.707Z,0.90
2022-10-14T09:28:20.916Z,0.98
2022-10-14T09:33:27.635Z,1.20
2022-10-14T09:38:32.171Z,0.98
2022-10-14T09:43:35.204Z,0.88
2022-10-14T09:48:44.070Z,1.10
2022-10-14T09:53:52.137Z,0.90
2022-10-14T09:58:57.395Z,1.25
2022-10-14T10:04:28.654Z,1.20
2022-10-14T10:09:33.118Z,0.90
2022-10-14T10:14:36.096Z,1.20
2022-10-14T10:19:41.495Z,0.98
2022-10-14T10:24:46.117Z,1.02
2022-10-14T10:29:49.294Z,0.90
2022-10-14T10:35:12.366Z,0.90
2022-10-14T10:40:32.724Z,1.00
2022-10-14T10:45:46.422Z,0.85
2022-10-14T10:50:57.782Z,0.73
2022-10-14T10:56:18.389Z,1.10
2022-10-14T11:01:36.758Z,1.08
2022-10-14T11:07:04.889Z,0.68
2022-10-14T11:12:17.728Z,0.90
2022-10-14T11:17:29.389Z,0.90
2022-10-14T11:22:57.733Z,1.00
2022-10-14T11:28:11.216Z,1.00
2022-10-14T11:33:28.672Z,0.90
2022-10-14T11:38:51.573Z,1.10
2022-10-14T11:44:04.127Z,0.90
2022-10-14T11:49:16.210Z,1.10
2022-10-14T11:54:25.578Z,1.10
2022-10-14T12:00:07.825Z,0.98
2022-10-14T12:05:19.568Z,1.00
2022-10-14T12:10:28.667Z,0.80
2022-10-14T12:15:33.678Z,0.80
2022-10-14T12:20:44.883Z,0.95
2022-10-14T12:25:56.768Z,0.77
2022-10-14T12:31:22.670Z,1.10
2022-10-14T12:41:43.639Z,1.10
2022-10-14T12:46:50.055Z,1.10
2022-10-14T12:51:57.549Z,1.00
2022-10-14T12:57:03.250Z,0.80
2022-10-14T13:02:19.412Z,0.90
2022-10-14T13:07:41.614Z,0.80
2022-10-14T13:12:45.411Z,0.70
2022-10-14T13:17:49.824Z,1.00
2022-10-14T13:22:54.207Z,0.88
2022-10-14T13:28:14.973Z,0.95
2022-10-14T13:33:23.830Z,0.70
2022-10-14T13:38:26.904Z,0.90
2022-10-14T13:43:35.051Z,1.00
2022-10-14T13:48:44.140Z,1.10
2022-10-14T13:53:54.851Z,0.80
2022-10-14T13:58:58.760Z,0.93
2022-10-14T14:04:03.448Z,0.90
2022-10-14T14:09:09.760Z,0.80
2022-10-14T14:14:20.454Z,1.02
2022-10-14T14:19:28.746Z,0.80
2022-10-14T14:24:34.141Z,0.95
2022-10-14T14:29:38.955Z,0.90
2022-10-14T14:34:46.006Z,0.80
2022-10-14T14:39:57.454Z,0.93
2022-10-14T14:45:05.007Z,0.80
2022-10-14T14:50:31.234Z,0.70
2022-10-14T14:55:44.248Z,0.80
2022-10-14T15:00:47.938Z,0.90
2022-10-14T15:05:55.211Z,0.80
2022-10-14T15:10:59.639Z,0.90
2022-10-14T15:16:02.626Z,0.77
2022-10-14T15:21:17.115Z,0.77
2022-10-14T15:26:23.919Z,0.90
2022-10-14T15:31:26.947Z,0.75
2022-10-14T15:36:33.231Z,1.05
2022-10-14T15:41:36.347Z,0.80
2022-10-14T15:46:58.747Z,0.80
2022-10-14T15:52:03.085Z,0.90
2022-10-14T15:57:07.105Z,0.70
2022-10-14T16:02:18.018Z,0.93
2022-10-14T16:07:22.437Z,0.88
2022-10-14T16:12:25.568Z,1.13
2022-10-14T16:17:28.575Z,0.80
2022-10-14T16:22:32.904Z,0.95
2022-10-14T16:27:35.907Z,1.00
2022-10-14T16:32:38.923Z,0.98
2022-10-14T16:37:43.258Z,0.88
2022-10-14T16:42:46.223Z,0.90
2022-10-14T16:47:49.167Z,1.02
2022-10-14T16:53:10.813Z,0.80
2022-10-14T16:58:13.757Z,1.10
2022-10-14T17:03:16.752Z,1.13
2022-10-14T17:08:21.089Z,0.80
2022-10-14T17:13:24.070Z,0.95
2022-10-14T17:18:31.006Z,0.80
2022-10-14T17:23:41.128Z,1.00
2022-10-14T17:28:44.142Z,0.90
2022-10-14T17:33:47.971Z,0.90
2022-10-14T17:38:53.092Z,1.10
2022-10-14T17:43:57.386Z,1.00
2022-10-14T17:49:01.662Z,1.05
2022-10-14T17:54:07.366Z,0.90
2022-10-14T17:59:14.130Z,1.00
2022-10-14T18:04:17.712Z,0.90
2022-10-14T18:09:22.214Z,1.10
2022-10-14T18:14:25.260Z,1.00
2022-10-14T18:19:28.448Z,1.00
2022-10-14T18:24:32.837Z,0.90
2022-10-14T18:29:35.833Z,1.10
2022-10-14T18:34:39.001Z,0.90
2022-10-14T18:39:44.631Z,1.10
2022-10-14T18:44:47.593Z,1.02
2022-10-14T18:49:51.001Z,1.05
2022-10-14T18:54:55.402Z,1.20
2022-10-14T18:59:58.875Z,1.10
2022-10-14T19:05:01.870Z,1.10
2022-10-14T19:10:07.085Z,1.30
2022-10-14T19:15:11.275Z,1.40
2022-10-14T19:20:14.381Z,1.10
2022-10-14T19:25:20.449Z,1.65
2022-10-14T19:30:23.428Z,1.50
2022-10-14T19:35:26.390Z,1.48
2022-10-14T19:40:30.699Z,1.60
2022-10-14T19:45:33.878Z,1.10
2022-10-14T19:50:36.881Z,1.35
2022-10-14T19:55:41.608Z,1.40
2022-10-14T20:00:45.172Z,1.40
2022-10-14T20:05:48.106Z,1.10
2022-10-14T20:10:52.455Z,1.20
2022-10-14T20:15:55.828Z,1.10
2022-10-14T20:20:58.896Z,1.17
2022-10-14T20:26:05.228Z,1.15
2022-10-14T20:31:08.813Z,1.10
2022-10-14T20:36:13.767Z,1.30
2022-10-14T20:41:20.836Z,1.10
2022-10-14T20:46:25.094Z,1.20
2022-10-14T20:51:28.364Z,1.10
2022-10-14T20:56:33.584Z,1.10
2022-10-14T21:01:38.543Z,1.00
2022-10-14T21:06:41.620Z,1.25
2022-10-14T21:11:46.575Z,1.17
2022-10-14T21:16:49.555Z,1.08
2022-10-14T21:21:52.521Z,1.30
2022-10-14T21:26:56.968Z,1.08
2022-10-14T21:31:59.959Z,1.00
2022-10-14T21:37:03.025Z,1.13
2022-10-14T21:42:07.420Z,1.00
2022-10-14T21:47:10.350Z,1.08
2022-10-14T21:52:13.271Z,1.10
2022-10-14T21:57:18.237Z,1.17
2022-10-14T22:02:22.586Z,1.10
2022-10-14T22:07:25.855Z,1.20
2022-10-14T22:12:30.703Z,1.08
2022-10-14T22:17:33.730Z,1.00
2022-10-14T22:22:36.738Z,0.90
2022-10-14T22:27:41.160Z,1.05
2022-10-14T22:32:44.347Z,0.90
2022-10-14T22:37:47.387Z,1.10
2022-10-14T22:42:51.826Z,1.00
2022-10-14T22:47:54.895Z,1.10
2022-10-14T22:52:57.957Z,0.93
2022-10-14T22:58:02.388Z,1.00
2022-10-14T23:03:05.460Z,1.00
2022-10-14T23:08:10.597Z,1.00
2022-10-14T23:13:15.020Z,1.00
2022-10-14T23:18:18.020Z,0.90
2022-10-14T23:23:21.126Z,0.82
2022-10-14T23:28:26.413Z,1.00
2022-10-14T23:33:29.545Z,0.88
2022-10-14T23:38:33.058Z,0.82
2022-10-14T23:43:37.623Z,0.90
2022-10-14T23:48:40.690Z,1.00
2022-10-14T23:53:43.870Z,0.98
2022-10-14T23:58:48.251Z,0.90
